Time;durP1;ratioP1;P1;durP2;ratioP2;P2;SDS_P1;SDS_P2;PMS_P1;PMS_P2;Temp;Humidity;BMP_temperature;BMP_pressure;BME280_temperature;BME280_humidity;BME280_pressure;Samples;Min_cycle;Max_cycle;Signal;HPM_P1;HPM_P2
2023/05/02 00:00:25;;;;;;;7.40;6.70;;;9.10;1.00;;;;;;5058168;28;20427;-45
2023/05/02 00:02:50;;;;;;;7.77;7.07;;;9.10;1.00;;;;;;5057187;28;20599;-45
2023/05/02 00:05:16;;;;;;;6.73;6.13;;;9.20;1.00;;;;;;5058072;28;20766;-44
2023/05/02 00:07:42;;;;;;;7.87;7.10;;;9.40;1.00;;;;;;5058065;28;20169;-46
2023/05/02 00:10:08;;;;;;;6.93;6.33;;;9.60;1.00;;;;;;5057384;28;20177;-47
2023/05/02 00:12:34;;;;;;;5.37;4.90;;;9.80;1.00;;;;;;5057741;28;20189;-47
2023/05/02 00:15:00;;;;;;;6.43;5.83;;;10.00;99.90;;;;;;5057234;28;20719;-46
2023/05/02 00:17:25;;;;;;;6.20;5.70;;;10.10;99.90;;;;;;5057298;28;20435;-45
2023/05/02 00:19:51;;;;;;;6.20;5.70;;;10.10;99.90;;;;;;5057285;28;20238;-44
2023/05/02 00:22:17;;;;;;;6.70;5.80;;;10.00;99.90;;;;;;5055968;28;20562;-44
2023/05/02 00:24:43;;;;;;;6.73;6.03;;;9.90;78.70;;;;;;5056680;28;20182;-46
2023/05/02 00:27:08;;;;;;;6.83;6.33;;;9.80;95.80;;;;;;5056570;28;20447;-46
2023/05/02 00:29:34;;;;;;;6.63;6.13;;;9.60;99.90;;;;;;5056032;28;20244;-44
2023/05/02 00:32:00;;;;;;;7.30;6.70;;;9.50;99.90;;;;;;5056105;28;20273;-44
2023/05/02 00:34:30;;;;;;;7.83;7.13;;;9.40;99.90;;;;;;5056671;28;20174;-45
2023/05/02 00:36:55;;;;;;;7.80;7.00;;;9.30;99.90;;;;;;5057243;28;20424;-45
2023/05/02 00:39:21;;;;;;;7.57;6.87;;;9.20;99.90;;;;;;5057710;28;20412;-46
2023/05/02 00:41:47;;;;;;;6.47;5.83;;;9.10;99.90;;;;;;5057737;28;20209;-45
2023/05/02 00:44:13;;;;;;;7.30;6.70;;;9.00;99.90;;;;;;5058045;28;20174;-45
2023/05/02 00:46:38;;;;;;;7.17;6.57;;;9.00;99.90;;;;;;5056257;28;20659;-44
2023/05/02 00:49:04;;;;;;;7.93;7.13;;;8.90;99.90;;;;;;5057305;28;20170;-44
2023/05/02 00:51:32;;;;;;;7.17;6.57;;;8.80;99.90;;;;;;5056885;28;20212;-44
2023/05/02 00:53:59;;;;;;;7.53;6.93;;;8.80;99.90;;;;;;5055771;28;20445;-46
2023/05/02 00:56:25;;;;;;;8.53;7.83;;;8.70;99.90;;;;;;5056037;28;20487;-43
2023/05/02 00:58:51;;;;;;;7.83;7.13;;;8.70;99.90;;;;;;5056427;28;20822;-46
2023/05/02 01:01:40;;;;;;;7.67;7.00;;;8.70;99.90;;;;;;5056315;28;21000;-44
2023/05/02 01:04:29;;;;;;;8.30;7.60;;;8.60;99.90;;;;;;5057206;28;20427;-45
2023/05/02 01:07:17;;;;;;;7.83;7.13;;;8.60;99.90;;;;;;5057298;28;20876;-44
2023/05/02 01:10:14;;;;;;;8.00;7.30;;;8.50;99.90;;;;;;5057745;28;20396;-48
2023/05/02 01:12:39;;;;;;;7.23;6.63;;;8.50;99.90;;;;;;5057893;28;20412;-46
2023/05/02 01:15:11;;;;;;;8.23;7.43;;;8.50;99.90;;;;;;5057956;28;20400;-47
2023/05/02 01:17:37;;;;;;;7.50;6.90;;;8.40;99.90;;;;;;5056728;28;20181;-45
2023/05/02 01:20:11;;;;;;;8.20;7.50;;;8.40;99.90;;;;;;5058139;28;20400;-44
2023/05/02 01:22:39;;;;;;;8.73;7.93;;;8.40;99.90;;;;;;5056815;28;20476;-45
2023/05/02 01:25:08;;;;;;;12.80;8.43;;;8.40;99.90;;;;;;5056734;28;20507;-44
2023/05/02 01:27:55;;;;;;;15.60;9.43;;;8.40;1.00;;;;;;5057383;28;20531;-47
2023/05/02 01:30:22;;;;;;;9.67;8.87;;;8.40;1.00;;;;;;5056521;28;20412;-46
2023/05/02 01:32:49;;;;;;;9.30;8.40;;;8.40;1.00;;;;;;5057744;28;20413;-45
2023/05/02 01:35:16;;;;;;;9.33;8.50;;;8.30;1.00;;;;;;5056627;28;20452;-44
2023/05/02 01:37:44;;;;;;;9.30;8.50;;;8.40;1.00;;;;;;5056291;28;20458;-45
2023/05/02 01:40:12;;;;;;;10.43;9.33;;;8.40;1.00;;;;;;5056848;28;20841;-45
2023/05/02 01:42:38;;;;;;;9.60;8.70;;;8.30;1.00;;;;;;5055780;28;20570;-47
2023/05/02 01:45:08;;;;;;;11.00;10.00;;;8.30;1.00;;;;;;5056781;28;20826;-44
2023/05/02 01:47:35;;;;;;;9.77;8.87;;;8.30;1.00;;;;;;5056629;28;20458;-44
2023/05/02 01:50:03;;;;;;;9.60;8.70;;;8.30;1.00;;;;;;5056404;28;20412;-45
2023/05/02 01:52:29;;;;;;;9.43;8.63;;;8.30;1.00;;;;;;5056882;28;20447;-46
2023/05/02 01:54:57;;;;;;;10.20;9.20;;;8.30;1.00;;;;;;5055178;28;20511;-45
2023/05/02 01:57:23;;;;;;;10.17;9.27;;;8.30;1.00;;;;;;5055124;28;20814;-44
2023/05/02 01:59:49;;;;;;;10.10;9.07;;;8.20;1.00;;;;;;5055295;28;20412;-46
2023/05/02 02:02:16;;;;;;;9.33;8.53;;;8.20;1.00;;;;;;5055776;28;20901;-45
2023/05/02 02:04:41;;;;;;;9.63;8.73;;;8.20;1.00;;;;;;5056202;28;20751;-44
2023/05/02 02:07:09;;;;;;;9.83;8.93;;;8.10;1.00;;;;;;5058818;28;20424;-44
2023/05/02 02:09:35;;;;;;;9.33;8.43;;;8.10;1.00;;;;;;5060524;28;20408;-46
2023/05/02 02:12:04;;;;;;;11.00;9.90;;;8.10;1.00;;;;;;5058281;28;20439;-45
2023/05/02 02:14:36;;;;;;;11.33;10.30;;;8.10;1.00;;;;;;5059094;28;20407;-45
2023/05/02 02:17:06;;;;;;;9.77;8.77;;;8.10;1.00;;;;;;5059984;28;20493;-46
2023/05/02 02:19:32;;;;;;;9.23;8.43;;;8.00;1.00;;;;;;5059560;28;20749;-48
2023/05/02 02:21:59;;;;;;;9.97;9.10;;;8.00;1.00;;;;;;5059011;28;20548;-45
2023/05/02 02:24:25;;;;;;;10.53;9.63;;;8.00;1.00;;;;;;5061309;28;20794;-45
2023/05/02 02:26:51;;;;;;;10.00;9.20;;;7.90;1.00;;;;;;5059752;28;20432;-46
2023/05/02 02:29:16;;;;;;;10.63;9.73;;;7.90;1.00;;;;;;5059580;28;20892;-44
2023/05/02 02:31:42;;;;;;;10.83;9.80;;;7.90;1.00;;;;;;5060539;28;20186;-47
2023/05/02 02:34:08;;;;;;;13.13;9.83;;;7.90;1.00;;;;;;5060948;28;20197;-44
2023/05/02 02:36:54;;;;;;;10.70;9.70;;;7.90;1.00;;;;;;5061017;28;20209;-44
2023/05/02 02:39:54;;;;;;;10.90;9.90;;;7.90;1.00;;;;;;5060630;28;20416;-46
2023/05/02 02:42:39;;;;;;;10.40;9.40;;;7.90;1.00;;;;;;5059212;28;20472;-46
2023/05/02 02:45:08;;;;;;;9.90;9.00;;;7.90;1.00;;;;;;5059086;28;20416;-46
2023/05/02 02:47:43;;;;;;;11.13;10.20;;;7.90;1.00;;;;;;5058711;28;20538;-46
2023/05/02 02:50:26;;;;;;;10.40;9.50;;;7.80;1.00;;;;;;5059316;28;20440;-46
2023/05/02 02:52:59;;;;;;;11.07;10.00;;;7.80;1.00;;;;;;5058096;28;20445;-44
2023/05/02 02:55:45;;;;;;;11.90;10.70;;;7.90;1.00;;;;;;5060042;28;20837;-47
2023/05/02 02:58:25;;;;;;;11.23;10.07;;;7.90;1.00;;;;;;5058371;28;20826;-47
2023/05/02 03:00:52;;;;;;;10.53;9.57;;;7.90;1.00;;;;;;5059755;28;20428;-45
2023/05/02 03:03:19;;;;;;;11.10;10.10;;;7.90;1.00;;;;;;5059397;28;20495;-48
2023/05/02 03:05:45;;;;;;;10.70;9.80;;;7.80;1.00;;;;;;5058534;28;20535;-46
2023/05/02 03:08:11;;;;;;;10.93;10.03;;;7.80;1.00;;;;;;5059016;28;20422;-44
2023/05/02 03:10:37;;;;;;;10.90;10.00;;;7.90;1.00;;;;;;5058478;28;20432;-44
2023/05/02 03:13:02;;;;;;;10.77;9.83;;;7.90;1.00;;;;;;5059144;28;20551;-45
2023/05/02 03:15:53;;;;;;;11.30;10.20;;;7.90;1.00;;;;;;5059721;28;20463;-45
2023/05/02 03:18:18;;;;;;;10.23;9.33;;;7.90;1.00;;;;;;5059620;28;20185;-45
2023/05/02 03:20:44;;;;;;;12.07;10.83;;;8.00;1.00;;;;;;5059411;28;20428;-44
2023/05/02 03:23:10;;;;;;;11.90;10.70;;;8.00;1.00;;;;;;5060112;28;20232;-52
2023/05/02 03:25:36;;;;;;;11.53;10.53;;;8.00;1.00;;;;;;5059556;28;20189;-45
2023/05/02 03:28:02;;;;;;;11.40;10.37;;;8.00;1.00;;;;;;5058658;28;20472;-44
2023/05/02 03:30:27;;;;;;;12.03;10.93;;;8.00;1.00;;;;;;5060173;28;20174;-45
2023/05/02 03:32:53;;;;;;;11.23;10.23;;;8.10;1.00;;;;;;5059543;28;20707;-47
2023/05/02 03:35:19;;;;;;;13.37;11.97;;;8.10;1.00;;;;;;5059752;28;20261;-47
2023/05/02 03:37:44;;;;;;;11.23;10.33;;;8.10;1.00;;;;;;5059116;28;20185;-45
2023/05/02 03:40:10;;;;;;;12.30;11.20;;;8.10;1.00;;;;;;5059601;28;20584;-46
2023/05/02 03:42:40;;;;;;;10.67;9.77;;;8.20;1.00;;;;;;5060051;28;20476;-44
2023/05/02 03:45:09;;;;;;;12.70;11.60;;;8.20;1.00;;;;;;5059212;28;20431;-45
2023/05/02 03:47:35;;;;;;;12.03;11.03;;;8.20;1.00;;;;;;5057634;28;20420;-47
2023/05/02 03:50:02;;;;;;;12.00;10.90;;;8.20;1.00;;;;;;5056710;28;20420;-46
2023/05/02 03:52:28;;;;;;;12.50;11.40;;;8.30;1.00;;;;;;5055146;28;20645;-47
2023/05/02 03:54:53;;;;;;;12.23;11.13;;;8.30;1.00;;;;;;5057911;28;20424;-46
2023/05/02 03:57:20;;;;;;;12.87;11.30;;;8.30;1.00;;;;;;5057422;28;20496;-44
2023/05/02 03:59:46;;;;;;;12.37;11.23;;;8.40;1.00;;;;;;5058447;28;20177;-44
2023/05/02 04:02:12;;;;;;;12.20;11.10;;;8.40;1.00;;;;;;5058936;28;20460;-45
2023/05/02 04:04:39;;;;;;;12.37;11.23;;;8.40;1.00;;;;;;5059442;28;20420;-48
2023/05/02 04:07:06;;;;;;;11.40;10.40;;;8.40;1.00;;;;;;5058560;28;20457;-46
2023/05/02 04:09:32;;;;;;;12.47;11.47;;;8.50;1.00;;;;;;5058287;28;20504;-45
2023/05/02 04:11:58;;;;;;;11.87;10.77;;;8.50;1.00;;;;;;5058283;28;20481;-46
2023/05/02 04:14:24;;;;;;;12.27;11.07;;;8.50;1.00;;;;;;5058198;28;20843;-47
2023/05/02 04:16:50;;;;;;;12.53;11.33;;;8.50;1.00;;;;;;5058287;28;20178;-47
2023/05/02 04:19:17;;;;;;;11.83;10.83;;;8.60;1.00;;;;;;5056396;28;20464;-45
2023/05/02 04:21:43;;;;;;;12.00;10.87;;;8.60;1.00;;;;;;5056707;28;20416;-47
2023/05/02 04:24:09;;;;;;;11.57;10.57;;;8.60;1.00;;;;;;5056836;28;20817;-45
2023/05/02 04:26:35;;;;;;;12.43;11.33;;;8.60;1.00;;;;;;5057136;28;20436;-46
2023/05/02 04:29:01;;;;;;;12.47;11.37;;;8.60;1.00;;;;;;5055282;28;20233;-44
2023/05/02 04:31:27;;;;;;;22.53;12.00;;;8.70;1.00;;;;;;5055083;28;20194;-44
2023/05/02 04:33:53;;;;;;;11.40;10.40;;;8.70;1.00;;;;;;5057209;28;20503;-44
2023/05/02 04:36:18;;;;;;;13.20;11.10;;;8.70;1.00;;;;;;5057057;28;20178;-46
2023/05/02 04:38:44;;;;;;;12.43;11.30;;;8.70;1.00;;;;;;5057136;28;20185;-43
2023/05/02 04:41:10;;;;;;;12.23;11.10;;;8.70;1.00;;;;;;5055756;28;20173;-44
2023/05/02 04:43:36;;;;;;;11.80;10.80;;;8.80;1.00;;;;;;5056293;28;20292;-45
2023/05/02 04:46:01;;;;;;;13.83;12.53;;;8.70;1.00;;;;;;5055680;28;20928;-45
2023/05/02 04:48:27;;;;;;;11.90;10.83;;;8.80;1.00;;;;;;5056257;28;20183;-44
2023/05/02 04:50:53;;;;;;;12.23;11.13;;;8.80;1.00;;;;;;5055697;28;20205;-46
2023/05/02 04:53:21;;;;;;;11.70;10.70;;;8.90;1.00;;;;;;5054872;28;20177;-46
2023/05/02 04:55:46;;;;;;;11.63;10.70;;;8.90;1.00;;;;;;5055905;28;20203;-46
2023/05/02 04:58:12;;;;;;;13.50;12.30;;;9.00;1.00;;;;;;5055824;28;20519;-45
2023/05/02 05:00:38;;;;;;;12.20;11.10;;;9.10;1.00;;;;;;5053481;28;20265;-44
2023/05/02 05:03:05;;;;;;;12.27;11.27;;;9.10;1.00;;;;;;5054197;28;20202;-45
2023/05/02 05:05:31;;;;;;;13.40;12.20;;;9.10;1.00;;;;;;5053707;28;20193;-46
2023/05/02 05:07:56;;;;;;;12.80;11.70;;;9.20;1.00;;;;;;5052871;28;20409;-45
2023/05/02 05:10:22;;;;;;;12.77;11.67;;;9.30;1.00;;;;;;5051026;28;20482;-44
2023/05/02 05:12:48;;;;;;;12.50;11.30;;;9.40;1.00;;;;;;5051914;28;20335;-45
2023/05/02 05:15:14;;;;;;;11.80;10.73;;;9.50;1.00;;;;;;5051954;28;20637;-44
2023/05/02 05:17:40;;;;;;;11.60;10.60;;;9.60;1.00;;;;;;5051562;28;20265;-45
2023/05/02 05:20:08;;;;;;;12.37;11.07;;;9.70;1.00;;;;;;5052061;28;20408;-46
2023/05/02 05:22:40;;;;;;;12.20;10.60;;;9.80;1.00;;;;;;5052780;28;20870;-46
2023/05/02 05:25:09;;;;;;;11.50;10.50;;;9.90;1.00;;;;;;5052682;28;20473;-46
2023/05/02 05:27:36;;;;;;;10.90;9.90;;;10.00;1.00;;;;;;5052917;28;20460;-44
2023/05/02 05:30:05;;;;;;;11.23;10.13;;;10.00;1.00;;;;;;5051381;28;20507;-45
2023/05/02 05:32:32;;;;;;;12.20;11.20;;;10.10;1.00;;;;;;5048658;28;20536;-45
2023/05/02 05:34:58;;;;;;;11.63;10.53;;;10.10;99.90;;;;;;5050250;28;20853;-44
2023/05/02 05:37:24;;;;;;;11.17;10.20;;;10.10;99.90;;;;;;5049584;28;20440;-44
2023/05/02 05:39:49;;;;;;;10.83;9.93;;;10.10;99.90;;;;;;5053134;28;20228;-45
2023/05/02 05:42:15;;;;;;;11.73;10.63;;;10.10;99.90;;;;;;5055960;28;20475;-44
2023/05/02 05:44:41;;;;;;;12.57;11.27;;;10.10;99.90;;;;;;5056603;28;20311;-43
2023/05/02 05:47:07;;;;;;;12.27;11.10;;;10.10;99.90;;;;;;5056933;28;20435;-44
2023/05/02 05:49:35;;;;;;;13.83;12.53;;;10.00;99.90;;;;;;5057945;28;20224;-45
2023/05/02 05:52:01;;;;;;;13.30;12.00;;;10.00;99.90;;;;;;5056071;28;20451;-45
2023/05/02 05:54:26;;;;;;;13.93;12.70;;;10.00;99.90;;;;;;5058007;28;20416;-44
2023/05/02 05:56:52;;;;;;;13.00;11.90;;;10.10;99.90;;;;;;5056579;28;20467;-45
2023/05/02 05:59:18;;;;;;;13.30;12.10;;;10.10;1.00;;;;;;5057362;28;20418;-44
2023/05/02 06:01:43;;;;;;;13.30;12.10;;;10.20;99.90;;;;;;5056644;28;20182;-45
2023/05/02 06:04:09;;;;;;;14.50;13.20;;;10.30;99.90;;;;;;5054891;28;20816;-45
2023/05/02 06:06:35;;;;;;;13.63;12.53;;;10.30;99.90;;;;;;5072645;28;20606;-44
2023/05/02 06:09:01;;;;;;;15.07;13.50;;;10.40;99.90;;;;;;5056634;28;20991;-45
2023/05/02 06:11:26;;;;;;;15.30;13.70;;;10.50;99.90;;;;;;5056319;28;20176;-45
2023/05/02 06:13:52;;;;;;;13.50;12.30;;;10.50;99.90;;;;;;5057211;28;20511;-44
2023/05/02 06:16:18;;;;;;;13.70;12.40;;;10.60;99.90;;;;;;5058610;28;20247;-47
2023/05/02 06:18:44;;;;;;;13.93;12.50;;;10.60;99.90;;;;;;5058872;28;20420;-45
2023/05/02 06:21:10;;;;;;;13.87;12.57;;;10.60;99.90;;;;;;5056755;28;20511;-47
2023/05/02 06:23:36;;;;;;;14.33;13.13;;;10.60;99.90;;;;;;5058952;28;20591;-46
2023/05/02 06:26:05;;;;;;;15.27;13.87;;;10.60;99.90;;;;;;5057047;28;20261;-45
2023/05/02 06:28:31;;;;;;;15.83;14.10;;;10.70;99.90;;;;;;5056351;28;20308;-45
2023/05/02 06:30:58;;;;;;;15.73;14.37;;;10.70;99.90;;;;;;5055731;28;21040;-44
2023/05/02 06:33:23;;;;;;;16.60;15.00;;;10.70;99.90;;;;;;5054881;28;20524;-44
2023/05/02 06:35:54;;;;;;;15.93;14.43;;;10.70;99.90;;;;;;5056426;28;20481;-44
2023/05/02 06:38:20;;;;;;;17.00;15.43;;;10.70;99.90;;;;;;5055353;28;20173;-44
2023/05/02 06:40:45;;;;;;;17.00;15.40;;;10.80;99.90;;;;;;5055519;28;20482;-45
2023/05/02 06:43:12;;;;;;;16.70;15.10;;;10.80;99.90;;;;;;5054856;28;20475;-45
2023/05/02 06:45:38;;;;;;;17.47;15.90;;;10.80;99.90;;;;;;5057861;28;20417;-45
2023/05/02 06:48:04;;;;;;;17.23;15.73;;;10.90;99.90;;;;;;5056743;28;20486;-45
2023/05/02 06:50:29;;;;;;;18.43;16.50;;;10.90;99.90;;;;;;5055720;28;20424;-45
2023/05/02 06:52:55;;;;;;;18.90;17.10;;;11.00;99.90;;;;;;5052975;28;20196;-44
2023/05/02 06:55:21;;;;;;;19.10;17.40;;;11.10;76.50;;;;;;5056595;28;20198;-44
2023/05/02 06:57:48;;;;;;;17.50;15.90;;;11.10;28.00;;;;;;5055678;28;20466;-46
2023/05/02 07:00:15;;;;;;;18.70;16.90;;;11.10;1.00;;;;;;5054832;28;20448;-46
2023/05/02 07:02:41;;;;;;;20.30;18.40;;;11.20;1.00;;;;;;5055333;28;20476;-45
2023/05/02 07:05:07;;;;;;;21.47;19.47;;;11.20;1.00;;;;;;5055230;28;20489;-44
2023/05/02 07:07:33;;;;;;;19.87;18.00;;;11.30;1.00;;;;;;5053429;28;20576;-44
2023/05/02 07:09:59;;;;;;;19.57;17.73;;;11.40;1.00;;;;;;5053073;28;20477;-47
2023/05/02 07:12:25;;;;;;;18.47;16.77;;;11.50;1.00;;;;;;5053337;28;20309;-44
2023/05/02 07:14:51;;;;;;;21.37;19.47;;;11.70;55.90;;;;;;5053747;28;20193;-44
2023/05/02 07:17:17;;;;;;;19.90;18.00;;;11.90;35.90;;;;;;5056454;28;20585;-44
2023/05/02 07:19:43;;;;;;;19.17;17.43;;;12.00;1.00;;;;;;5056040;28;20421;-45
2023/05/02 07:22:08;;;;;;;18.43;16.83;;;12.20;1.00;;;;;;5056589;28;20942;-45
2023/05/02 07:24:34;;;;;;;19.83;16.80;;;12.30;99.90;;;;;;5055188;28;20161;-46
2023/05/02 07:27:02;;;;;;;18.63;16.93;;;12.50;99.90;;;;;;5056069;28;20418;-46
2023/05/02 07:29:28;;;;;;;18.10;16.50;;;12.60;99.90;;;;;;5056632;28;20480;-45
2023/05/02 07:31:53;;;;;;;18.83;16.93;;;12.60;1.00;;;;;;5054611;28;20424;-46
2023/05/02 07:34:19;;;;;;;21.60;19.60;;;12.70;1.00;;;;;;5058051;28;20174;-46
2023/05/02 07:36:44;;;;;;;21.40;19.20;;;12.70;99.90;;;;;;5055560;28;20178;-46
2023/05/02 07:39:10;;;;;;;21.57;19.40;;;12.80;1.00;;;;;;5056828;28;20201;-46
2023/05/02 07:41:36;;;;;;;20.97;18.97;;;12.80;1.00;;;;;;5053945;28;20182;-44
2023/05/02 07:44:01;;;;;;;21.30;19.20;;;12.90;1.00;;;;;;5056010;28;20166;-45
2023/05/02 07:46:27;;;;;;;20.07;18.27;;;13.00;99.90;;;;;;5054992;28;20172;-45
2023/05/02 07:48:53;;;;;;;23.80;21.40;;;13.00;99.90;;;;;;5055181;28;20209;-44
2023/05/02 07:51:20;;;;;;;25.80;22.73;;;13.10;99.90;;;;;;5055720;28;20198;-45
2023/05/02 07:53:48;;;;;;;25.20;22.80;;;13.10;98.70;;;;;;5054095;28;20352;-43
2023/05/02 07:56:14;;;;;;;27.20;24.70;;;13.20;10.10;;;;;;5035497;28;20420;-44
2023/05/02 07:58:40;;;;;;;23.80;21.57;;;13.30;1.00;;;;;;5054721;28;20508;-46
2023/05/02 08:01:07;;;;;;;25.93;23.53;;;13.40;1.00;;;;;;5053277;28;20196;-47
2023/05/02 08:03:32;;;;;;;28.50;25.73;;;13.50;99.90;;;;;;5055148;28;20465;-45
2023/05/02 08:05:58;;;;;;;30.50;27.53;;;13.60;87.90;;;;;;5052006;28;20422;-44
2023/05/02 08:08:24;;;;;;;30.70;27.67;;;13.60;99.90;;;;;;5054201;28;20400;-45
2023/05/02 08:10:50;;;;;;;33.87;30.67;;;13.60;99.90;;;;;;5053466;28;20184;-49
2023/05/02 08:13:16;;;;;;;34.10;30.80;;;13.60;99.90;;;;;;5055696;28;20449;-45
2023/05/02 08:15:42;;;;;;;37.83;33.87;;;13.60;1.00;;;;;;5056759;28;20412;-44
2023/05/02 08:18:07;;;;;;;34.47;31.07;;;13.60;1.00;;;;;;5055523;28;20420;-44
2023/05/02 08:20:33;;;;;;;36.97;33.27;;;13.70;1.00;;;;;;5056572;28;20186;-45
2023/05/02 08:22:59;;;;;;;37.10;33.53;;;13.70;1.00;;;;;;5055146;28;20304;-44
2023/05/02 08:25:24;;;;;;;39.10;35.23;;;13.70;1.00;;;;;;5054343;28;20178;-45
2023/05/02 08:27:50;;;;;;;34.53;31.20;;;13.70;1.00;;;;;;5055266;28;20226;-45
2023/05/02 08:30:16;;;;;;;36.83;33.23;;;13.70;26.50;;;;;;5052870;28;20601;-45
2023/05/02 08:32:42;;;;;;;36.97;33.07;;;13.80;1.00;;;;;;5055634;28;20186;-44
2023/05/02 08:35:08;;;;;;;37.30;33.70;;;13.80;1.00;;;;;;5037633;28;20281;-47
2023/05/02 08:37:35;;;;;;;36.93;33.43;;;14.00;1.00;;;;;;5056000;28;20523;-44
2023/05/02 08:40:02;;;;;;;34.33;30.93;;;14.10;99.90;;;;;;5055402;28;20862;-43
2023/05/02 08:42:28;;;;;;;38.07;34.20;;;14.30;99.90;;;;;;5055318;28;20785;-43
2023/05/02 08:44:54;;;;;;;34.70;31.40;;;14.50;1.00;;;;;;5054391;28;20438;-44
2023/05/02 08:47:21;;;;;;;33.80;30.63;;;14.70;99.90;;;;;;5053871;28;20416;-43
2023/05/02 08:49:48;;;;;;;34.40;31.10;;;14.90;99.90;;;;;;5056074;28;20474;-44
2023/05/02 08:52:16;;;;;;;32.97;29.70;;;15.10;82.50;;;;;;5057194;28;20416;-43
2023/05/02 08:54:42;;;;;;;31.33;28.33;;;15.40;20.60;;;;;;5055001;28;20419;-45
2023/05/02 08:57:08;;;;;;;32.10;29.20;;;15.60;1.00;;;;;;5054713;28;20419;-44
2023/05/02 08:59:33;;;;;;;32.27;28.97;;;15.70;1.00;;;;;;5055880;28;20424;-44
2023/05/02 09:02:11;;;;;;;33.10;29.97;;;15.90;1.00;;;;;;5038063;28;20363;-43
2023/05/02 09:04:40;;;;;;;31.50;28.50;;;16.20;99.90;;;;;;5054821;28;20404;-46
2023/05/02 09:07:05;;;;;;;33.67;30.67;;;16.50;99.90;;;;;;5036659;28;20905;-44
2023/05/02 09:09:33;;;;;;;30.63;27.60;;;16.60;1.00;;;;;;5056450;28;20577;-46
2023/05/02 09:11:58;;;;;;;29.00;26.30;;;16.80;1.00;;;;;;5055420;28;20405;-44
2023/05/02 09:14:24;;;;;;;33.07;29.83;;;17.00;1.00;;;;;;5055111;28;20428;-45
2023/05/02 09:16:58;;;;;;;30.57;27.57;;;17.00;99.90;;;;;;5054506;28;20764;-44
2023/05/02 09:19:25;;;;;;;28.30;25.70;;;16.60;99.90;;;;;;5055760;28;20432;-45
2023/05/02 09:21:50;;;;;;;25.90;23.50;;;16.90;1.00;;;;;;5054695;28;20419;-47
2023/05/02 09:24:21;;;;;;;27.27;24.63;;;17.30;99.90;;;;;;5055765;28;20428;-44
2023/05/02 09:27:03;;;;;;;25.13;22.83;;;17.60;99.90;;;;;;5054434;28;20479;-46
2023/05/02 09:29:34;;;;;;;23.13;21.03;;;18.00;99.90;;;;;;5054236;28;20479;-45
2023/05/02 09:32:03;;;;;;;26.67;23.90;;;18.00;99.90;;;;;;5054444;28;20794;-46
2023/05/02 09:34:29;;;;;;;32.33;25.40;;;18.20;99.90;;;;;;5053923;28;20826;-46
2023/05/02 09:36:56;;;;;;;27.30;24.73;;;18.10;99.90;;;;;;5054235;28;20412;-45
2023/05/02 09:39:23;;;;;;;30.53;27.73;;;17.90;99.90;;;;;;5052222;28;20501;-45
2023/05/02 09:41:49;;;;;;;32.07;28.93;;;17.90;99.90;;;;;;5054210;28;20631;-47
2023/05/02 09:44:19;;;;;;;28.50;25.90;;;17.30;99.90;;;;;;5052087;28;20526;-47
2023/05/02 09:46:52;;;;;;;31.63;28.63;;;17.10;99.90;;;;;;5050171;28;20405;-48
2023/05/02 09:49:18;;;;;;;28.33;25.83;;;17.20;99.90;;;;;;5052325;28;20428;-45
2023/05/02 09:51:45;;;;;;;30.07;27.43;;;17.20;99.90;;;;;;5052670;28;20405;-44
2023/05/02 09:54:12;;;;;;;28.93;26.30;;;17.40;99.90;;;;;;5053294;28;20424;-44
2023/05/02 09:56:55;;;;;;;32.67;29.57;;;17.40;99.90;;;;;;5052895;28;20924;-45
2023/05/02 09:59:20;;;;;;;25.40;23.20;;;17.70;99.90;;;;;;5053981;28;20451;-46
2023/05/02 10:01:54;;;;;;;29.90;26.83;;;17.80;99.90;;;;;;5052961;28;20515;-46
2023/05/02 10:04:20;;;;;;;30.70;27.80;;;17.90;99.90;;;;;;5051643;28;20177;-44
2023/05/02 10:06:46;;;;;;;27.37;24.70;;;17.80;99.90;;;;;;5053031;28;20412;-45
2023/05/02 10:09:14;;;;;;;28.70;25.17;;;18.00;99.90;;;;;;5051736;28;20288;-46
2023/05/02 10:11:44;;;;;;;27.20;24.80;;;18.30;49.80;;;;;;5052436;28;20412;-45
2023/05/02 10:14:11;;;;;;;26.23;23.63;;;18.60;88.70;;;;;;5052284;28;20869;-45
2023/05/02 10:16:50;;;;;;;26.73;24.33;;;19.20;25.40;;;;;;5052110;28;20581;-45
2023/05/02 10:19:27;;;;;;;11.83;10.77;;;19.60;3.10;;;;;;5035395;28;20439;-48
2023/05/02 10:21:54;;;;;;;16.27;14.77;;;19.70;45.40;;;;;;5037799;28;20424;-48
2023/05/02 10:24:20;;;;;;;16.50;13.93;;;20.30;35.40;;;;;;5052664;28;20428;-45
2023/05/02 10:26:47;;;;;;;24.10;21.90;;;21.10;7.30;;;;;;5051192;28;20622;-47
2023/05/02 10:29:12;;;;;;;25.27;22.80;;;21.50;1.00;;;;;;5053578;28;20472;-46
2023/05/02 10:31:39;;;;;;;22.67;20.80;;;22.00;1.00;;;;;;5055218;28;20419;-45
2023/05/02 10:34:09;;;;;;;20.83;18.90;;;22.30;1.00;;;;;;5054518;28;20174;-45
2023/05/02 10:36:35;;;;;;;22.97;20.87;;;22.30;1.00;;;;;;5051879;28;20852;-45
2023/05/02 10:39:01;;;;;;;19.07;17.37;;;22.30;1.00;;;;;;5054166;28;20432;-44
2023/05/02 10:41:30;;;;;;;18.80;17.10;;;22.50;1.00;;;;;;5054819;28;20415;-45
2023/05/02 10:43:55;;;;;;;19.23;17.57;;;23.20;1.00;;;;;;5053301;28;20483;-47
2023/05/02 10:46:36;;;;;;;16.80;15.30;;;23.80;1.00;;;;;;5053630;28;20690;-44
2023/05/02 10:49:03;;;;;;;16.30;14.80;;;24.10;1.00;;;;;;5056419;28;20185;-46
2023/05/02 10:51:30;;;;;;;17.50;16.00;;;24.10;1.00;;;;;;5055193;28;20578;-45
2023/05/02 10:54:15;;;;;;;17.93;16.43;;;23.80;1.00;;;;;;5056112;28;20420;-47
2023/05/02 10:57:05;;;;;;;17.60;16.20;;;23.40;1.00;;;;;;5056885;28;20420;-45
2023/05/02 10:59:37;;;;;;;18.20;16.60;;;23.10;1.00;;;;;;5058125;28;20785;-46
2023/05/02 11:02:06;;;;;;;14.63;13.33;;;22.70;1.00;;;;;;5055997;28;20555;-47
2023/05/02 11:05:03;;;;;;;17.77;16.20;;;23.20;1.00;;;;;;5054504;28;20733;-48
2023/05/02 11:07:31;;;;;;;18.67;17.07;;;23.10;1.00;;;;;;5055110;28;20419;-47
2023/05/02 11:10:19;;;;;;;17.63;16.13;;;22.40;1.00;;;;;;5053494;28;20530;-47
2023/05/02 11:12:46;;;;;;;14.30;12.90;;;21.50;1.00;;;;;;5052527;28;20432;-50
2023/05/02 11:15:12;;;;;;;15.03;13.63;;;21.20;1.00;;;;;;5052190;28;20418;-45
2023/05/02 11:18:07;;;;;;;14.60;13.40;;;21.20;1.00;;;;;;5054521;28;20508;-48
2023/05/02 11:20:35;;;;;;;15.83;14.33;;;21.10;1.00;;;;;;5052726;28;20415;-46
2023/05/02 11:23:20;;;;;;;16.00;14.60;;;21.40;1.00;;;;;;5051693;28;20522;-45
2023/05/02 11:25:50;;;;;;;15.87;14.40;;;21.60;1.00;;;;;;5052972;28;20512;-48
2023/05/02 11:28:36;;;;;;;15.60;14.30;;;22.40;1.00;;;;;;5050234;28;20769;-48
2023/05/02 11:31:06;;;;;;;16.83;15.43;;;23.50;1.00;;;;;;5045309;28;20425;-47
2023/05/02 11:33:31;;;;;;;15.97;14.57;;;24.30;1.00;;;;;;5049936;28;20790;-49
2023/05/02 11:35:57;;;;;;;19.43;17.63;;;24.40;1.00;;;;;;5049039;28;20417;-46
2023/05/02 11:38:24;;;;;;;17.17;15.77;;;24.00;1.00;;;;;;5050529;28;20451;-48
2023/05/02 11:40:55;;;;;;;15.23;14.00;;;23.70;1.00;;;;;;5053264;28;20170;-46
2023/05/02 11:43:21;;;;;;;17.70;16.30;;;23.50;1.00;;;;;;5053368;28;20568;-45
2023/05/02 11:45:47;;;;;;;16.60;15.00;;;23.70;1.00;;;;;;5055179;28;20697;-46
2023/05/02 11:48:15;;;;;;;16.07;14.77;;;23.70;1.00;;;;;;5052198;28;20437;-47
2023/05/02 11:50:46;;;;;;;17.40;15.90;;;23.50;1.00;;;;;;5050629;28;20443;-46
2023/05/02 11:53:21;;;;;;;21.13;19.33;;;23.40;1.00;;;;;;5049812;28;20741;-46
2023/05/02 11:55:55;;;;;;;17.07;15.57;;;23.60;1.00;;;;;;5053655;28;20411;-46
2023/05/02 11:58:23;;;;;;;15.30;14.10;;;23.80;1.00;;;;;;5053272;28;20488;-46
2023/05/02 12:00:50;;;;;;;20.20;18.57;;;23.70;1.00;;;;;;5051665;28;20408;-46
2023/05/02 12:03:34;;;;;;;18.43;16.73;;;23.60;1.00;;;;;;5052908;28;20468;-48
2023/05/02 12:06:12;;;;;;;14.60;13.40;;;23.20;1.00;;;;;;5054182;28;20698;-50
2023/05/02 12:08:39;;;;;;;18.40;16.80;;;22.90;1.00;;;;;;5052144;28;20419;-46
2023/05/02 12:11:05;;;;;;;19.23;17.37;;;22.50;1.00;;;;;;5054840;28;20885;-48
2023/05/02 12:13:31;;;;;;;14.63;13.43;;;22.10;1.00;;;;;;5054829;28;20546;-48
2023/05/02 12:15:58;;;;;;;19.87;17.97;;;21.90;1.00;;;;;;5055812;28;20837;-45
2023/05/02 12:18:25;;;;;;;16.10;14.57;;;21.60;1.00;;;;;;5054963;28;20447;-46
2023/05/02 12:20:52;;;;;;;18.50;16.93;;;21.40;1.00;;;;;;5038206;28;20185;-49
2023/05/02 12:23:23;;;;;;;20.93;19.13;;;21.80;1.00;;;;;;5054667;28;20486;-46
2023/05/02 12:25:49;;;;;;;26.43;20.90;;;22.20;1.00;;;;;;5053615;28;20424;-46
2023/05/02 12:28:18;;;;;;;22.23;20.23;;;22.50;1.00;;;;;;5052385;28;20929;-45
2023/05/02 12:30:45;;;;;;;21.50;19.53;;;23.00;1.00;;;;;;5052911;28;20184;-45
2023/05/02 12:33:11;;;;;;;24.03;21.83;;;23.50;1.00;;;;;;5051177;28;20424;-47
2023/05/02 12:35:37;;;;;;;23.30;21.40;;;23.80;1.00;;;;;;5052981;28;20426;-45
2023/05/02 12:38:21;;;;;;;20.83;19.13;;;23.90;1.00;;;;;;5053567;28;20249;-47
2023/05/02 12:40:58;;;;;;;22.37;20.30;;;23.90;1.00;;;;;;5053413;28;20169;-45
2023/05/02 12:43:24;;;;;;;22.27;20.40;;;24.30;1.00;;;;;;5051515;28;20468;-48
2023/05/02 12:45:52;;;;;;;22.83;20.93;;;24.40;1.00;;;;;;5047852;28;20433;-49